RJFMRJOM

Guest
Details From RJFM - MIYAZAKI
To RJOM - MATSUYAMA
Flight Number -
Tags generated
Created
Modified
Stats Distance 133 nm / 247 km
Max Altitude 6,500 ft / 1,981 m
Waypoints 3
Social Downloads 0
Likes 0
Share VATSIM

Download

Looking for another format? Having issues loading an existing format? Contact us
Advertisement - Login to hide

Notes

Basic altitude profile: - Ascent Rate: 2500ft/min - Ascent Speed: 250kts - Cruise Altitude: 35000ft - Cruise Speed: 420kts - Descent Rate: 1500ft/min - Descent Speed: 250kts Options: - Use NATs: yes - Use PACOTS: yes - Use low airways: yes - Use high airways: yes

Route

RJFM DONAR RJOM

ID Type Via Altitude Latitude Longitude Leg Dist Tot Dist Heading (true) Name
O RJFM APT - 0 ft / 0 m 31.87713˚ 131.44845˚ - 0 nm - MIYAZAKI
DONAR FIX - 6,500 ft / 1,981 m 33.35143˚ 132.48464˚ 102 nm 102 nm 30° / 31° -
O RJOM APT - 0 ft / 0 m 33.82726˚ 132.69963˚ 30 nm 133 nm 21° / 21° MATSUYAMA

Altitude Profile

Advertisement - Login to hide

RJFM

Details ICAO RJFM (KMI)
Name MIYAZAKI
Region Japan
Timezone Asia/Tokyo (UTC+9.0)
Stats Elevation 20 ft / 6 m (AMSL)
Location 31.877128° 131.448447°
Runways 1
Magnetic Variation 6.932° W

METAR

RJFM 140000Z 30009KT 9999 FEW030 04/M03 Q1027

Decode

TAF

TAF RJFM 132305Z 1400/1506 31006KT 9999 FEW030 BECMG 1400/1402 03011KT BECMG 1409/1411 32007KT BECMG 1500/1503 03003KT

Decode

Departure Runways

ID Width Length Bearing (true) Bearing (mag) Surface Threshold Offset Overrun Length
09 150 ft / 46 m 8,187 ft / 2,496 m 85.16° 92.09° Asphalt 0 ft / 0 m 200 ft / 61 m
27 150 ft / 46 m 8,187 ft / 2,496 m 265.18° 272.11° Asphalt 0 ft / 0 m 200 ft / 61 m

RJOM

Details ICAO RJOM (MYJ)
Name MATSUYAMA
Region Japan
Timezone Asia/Tokyo (UTC+9.0)
Stats Elevation 25 ft / 8 m (AMSL)
Location 33.827257° 132.699631°
Runways 1
Magnetic Variation 7.513° W

METAR

RJOM 140000Z 05006KT 360V100 9999 FEW020 SCT060 06/M03 Q1028

Decode

TAF

TAF RJOM 132305Z 1400/1506 12005KT 9999 FEW025 SCT045 BECMG 1400/1402 01010KT BECMG 1409/1411 12005KT BECMG 1500/1503 32005KT

Decode

Destination Runways

ID Width Length Bearing (true) Bearing (mag) Surface Threshold Offset Overrun Length
14 150 ft / 46 m 8,203 ft / 2,500 m 130.67° 138.18° Asphalt 0 ft / 0 m 206 ft / 63 m
32 150 ft / 46 m 8,203 ft / 2,500 m 310.68° 318.19° Asphalt 0 ft / 0 m 195 ft / 59 m